Time;durP1;ratioP1;P1;durP2;ratioP2;P2;SDS_P1;SDS_P2;PMS_P1;PMS_P2;Temp;Humidity;BMP_temperature;BMP_pressure;BME280_temperature;BME280_humidity;BME280_pressure;Samples;Min_cycle;Max_cycle;Signal;HPM_P1;HPM_P2
2022/01/14 00:01:58;;;;;;;;;113.33;107.67;;;;;;;;5095441;28;8847;-75
2022/01/14 00:04:23;;;;;;;;;116.50;108.75;;;;;;;;5096160;28;8825;-75
2022/01/14 00:06:48;;;;;;;;;117.00;109.25;;;;;;;;5095407;28;8932;-75
2022/01/14 00:09:15;;;;;;;;;131.75;121.25;;;;;;;;5096178;28;8928;-75
2022/01/14 00:11:45;;;;;;;;;109.50;95.00;;;;;;;;5095462;28;8840;-75
2022/01/14 00:14:22;;;;;;;;;106.40;93.80;;;;;;;;5095533;28;12558;-75
2022/01/14 00:16:48;;;;;;;;;109.50;98.25;;;;;;;;5095358;28;8774;-75
2022/01/14 00:19:14;;;;;;;;;108.25;91.25;;;;;;;;5094118;28;8828;-75
2022/01/14 00:21:41;;;;;;;;;100.67;77.33;;;;;;;;5095186;28;8817;-75
2022/01/14 00:24:11;;;;;;;;;102.25;84.50;;;;;;;;5095440;28;8929;-75
2022/01/14 00:32:08;;;;;;;;;97.75;76.75;;;;;;;;5095289;28;8840;-75
2022/01/14 00:34:33;;;;;;;;;105.25;82.00;;;;;;;;5095058;28;12565;-75
2022/01/14 00:37:00;;;;;;;;;103.33;79.00;;;;;;;;5094372;28;11532;-75
2022/01/14 00:39:26;;;;;;;;;107.00;89.00;;;;;;;;5095458;28;8824;-75
2022/01/14 00:41:51;;;;;;;;;102.50;78.50;;;;;;;;5095388;28;8810;-75
2022/01/14 00:44:17;;;;;;;;;94.75;74.50;;;;;;;;5094997;28;8810;-75
2022/01/14 00:46:43;;;;;;;;;99.75;79.00;;;;;;;;5083454;28;8820;-75
2022/01/14 00:49:08;;;;;;;;;86.75;70.00;;;;;;;;5093307;28;8808;-75
2022/01/14 00:51:35;;;;;;;;;81.25;66.00;;;;;;;;5095410;28;8959;-75
2022/01/14 00:54:00;;;;;;;;;101.75;79.25;;;;;;;;5093078;28;8806;-75
2022/01/14 00:59:15;;;;;;;;;88.75;69.25;;;;;;;;5094665;28;9608;-75
2022/01/14 01:01:49;;;;;;;;;93.25;74.50;;;;;;;;5094952;28;9641;-75
2022/01/14 01:04:16;;;;;;;;;83.50;65.50;;;;;;;;5095168;28;8769;-75
2022/01/14 01:06:42;;;;;;;;;92.00;72.75;;;;;;;;5094758;28;8813;-75
2022/01/14 01:09:12;;;;;;;;;96.00;77.00;;;;;;;;5094931;28;8789;-75
2022/01/14 01:11:50;;;;;;;;;91.00;74.00;;;;;;;;5094910;28;8903;-75
2022/01/14 01:14:28;;;;;;;;;102.67;81.33;;;;;;;;5094452;28;8841;-75
2022/01/14 01:16:53;;;;;;;;;105.25;89.25;;;;;;;;5081439;28;8817;-75
2022/01/14 01:19:18;;;;;;;;;91.50;69.75;;;;;;;;5091149;28;8868;-75
2022/01/14 01:21:44;;;;;;;;;98.50;76.00;;;;;;;;5094583;28;8971;-75
2022/01/14 01:24:11;;;;;;;;;92.67;72.33;;;;;;;;5094482;28;9620;-75
2022/01/14 01:26:39;;;;;;;;;92.50;74.50;;;;;;;;5081494;28;9595;-75
2022/01/14 01:31:38;;;;;;;;;97.00;75.25;;;;;;;;5094851;28;8830;-75
2022/01/14 01:34:03;;;;;;;;;100.60;79.20;;;;;;;;5094279;28;9037;-75
2022/01/14 01:36:28;;;;;;;;;91.33;74.00;;;;;;;;5094523;28;9081;-75
2022/01/14 01:38:54;;;;;;;;;92.00;72.00;;;;;;;;5093972;28;10263;-75
2022/01/14 01:41:20;;;;;;;;;99.00;83.75;;;;;;;;5094298;28;11574;-75
2022/01/14 01:43:51;;;;;;;;;90.00;73.75;;;;;;;;5093944;28;8730;-75
2022/01/14 01:46:16;;;;;;;;;91.50;74.00;;;;;;;;5085870;28;8795;-75
2022/01/14 01:48:42;;;;;;;;;95.25;75.25;;;;;;;;5083754;28;8820;-76
2022/01/14 01:51:07;;;;;;;;;92.75;72.00;;;;;;;;5092869;28;8832;-75
2022/01/14 01:53:33;;;;;;;;;97.25;79.25;;;;;;;;5094197;28;8914;-75
2022/01/14 01:56:00;;;;;;;;;94.50;75.75;;;;;;;;5093910;28;9581;-75
2022/01/14 01:58:25;;;;;;;;;84.00;67.50;;;;;;;;5093871;28;8738;-75
2022/01/14 02:00:50;;;;;;;;;94.00;74.00;;;;;;;;5093661;28;8810;-75
2022/01/14 02:03:16;;;;;;;;;91.67;71.00;;;;;;;;5094364;28;8822;-75
2022/01/14 02:05:43;;;;;;;;;86.75;69.50;;;;;;;;5093620;28;11566;-75
2022/01/14 02:08:09;;;;;;;;;95.25;74.75;;;;;;;;5094261;28;8798;-75
2022/01/14 02:10:34;;;;;;;;;93.33;72.00;;;;;;;;5093902;28;9565;-75
2022/01/14 02:13:01;;;;;;;;;83.75;65.25;;;;;;;;5093181;28;8853;-75
2022/01/14 02:15:30;;;;;;;;;81.25;68.00;;;;;;;;5092297;28;8871;-74
2022/01/14 02:23:10;;;;;;;;;102.25;79.50;;;;;;;;5093582;28;8789;-74
2022/01/14 02:25:36;;;;;;;;;84.50;68.75;;;;;;;;5093869;28;8899;-74
2022/01/14 02:28:09;;;;;;;;;94.25;71.50;;;;;;;;5093180;28;9744;-74
2022/01/14 02:30:36;;;;;;;;;93.00;74.75;;;;;;;;5093899;28;8794;-74
2022/01/14 02:33:01;;;;;;;;;72.25;57.75;;;;;;;;5093399;28;8878;-74
2022/01/14 02:35:27;;;;;;;;;99.75;78.25;;;;;;;;5093497;28;8810;-74
2022/01/14 02:37:52;;;;;;;;;98.00;76.25;;;;;;;;5093166;28;8805;-74
2022/01/14 02:40:18;;;;;;;;;85.67;67.67;;;;;;;;5093862;28;8808;-74
2022/01/14 02:42:47;;;;;;;;;92.50;71.00;;;;;;;;5093069;28;8794;-74
2022/01/14 02:45:12;;;;;;;;;94.25;73.50;;;;;;;;5093176;28;8746;-74
2022/01/14 02:47:38;;;;;;;;;94.67;74.33;;;;;;;;5079927;28;8817;-74
2022/01/14 02:50:06;;;;;;;;;76.00;58.50;;;;;;;;5093258;28;11618;-74
2022/01/14 02:55:17;;;;;;;;;105.25;79.25;;;;;;;;5093296;28;8806;-74
2022/01/14 02:57:44;;;;;;;;;90.75;70.75;;;;;;;;5092803;28;8778;-74
2022/01/14 03:00:10;;;;;;;;;98.00;76.00;;;;;;;;5096610;28;8800;-74
2022/01/14 03:02:36;;;;;;;;;94.50;70.00;;;;;;;;5097003;28;8813;-74
2022/01/14 03:05:02;;;;;;;;;97.50;75.25;;;;;;;;5095150;28;8790;-74
2022/01/14 03:07:28;;;;;;;;;81.25;65.00;;;;;;;;5097245;28;8794;-74
2022/01/14 03:09:53;;;;;;;;;88.75;69.75;;;;;;;;5096609;28;8813;-74
2022/01/14 03:12:19;;;;;;;;;93.67;73.00;;;;;;;;5097209;28;8826;-74
2022/01/14 03:14:45;;;;;;;;;97.75;77.50;;;;;;;;5096099;28;10543;-74
2022/01/14 03:17:10;;;;;;;;;85.75;67.00;;;;;;;;5096851;28;8920;-74
2022/01/14 03:19:36;;;;;;;;;91.75;70.25;;;;;;;;5093407;28;8932;-74
2022/01/14 03:27:10;;;;;;;;;96.50;76.50;;;;;;;;5096795;28;8849;-74
2022/01/14 03:29:35;;;;;;;;;99.67;77.67;;;;;;;;5096766;28;8801;-74
2022/01/14 03:32:03;;;;;;;;;103.33;79.33;;;;;;;;5096299;28;8869;-75
2022/01/14 03:34:28;;;;;;;;;98.00;77.75;;;;;;;;5096717;28;8805;-74
2022/01/14 03:36:53;;;;;;;;;83.75;64.00;;;;;;;;5096071;28;8798;-74
2022/01/14 03:39:19;;;;;;;;;103.00;78.33;;;;;;;;5096534;28;8789;-74
2022/01/14 03:41:44;;;;;;;;;95.25;75.25;;;;;;;;5096030;28;10745;-74
2022/01/14 03:44:10;;;;;;;;;102.33;80.33;;;;;;;;5094574;28;8825;-74
2022/01/14 03:46:35;;;;;;;;;101.75;79.25;;;;;;;;5085396;28;9331;-74
2022/01/14 03:49:00;;;;;;;;;108.00;87.00;;;;;;;;5091767;28;9689;-73
2022/01/14 03:51:27;;;;;;;;;93.00;71.33;;;;;;;;5096259;28;8837;-73
2022/01/14 03:53:53;;;;;;;;;99.75;78.00;;;;;;;;5095479;28;11653;-74
2022/01/14 03:56:18;;;;;;;;;106.25;83.50;;;;;;;;5094744;28;8802;-74
2022/01/14 03:58:44;;;;;;;;;105.00;83.50;;;;;;;;5094177;28;8844;-73
2022/01/14 04:01:09;;;;;;;;;96.67;76.00;;;;;;;;5094514;28;8822;-75
2022/01/14 04:03:35;;;;;;;;;108.25;88.75;;;;;;;;5094652;28;9207;-75
2022/01/14 04:06:01;;;;;;;;;99.00;75.75;;;;;;;;5095648;28;8844;-75
2022/01/14 04:08:26;;;;;;;;;106.25;90.00;;;;;;;;5095914;28;8790;-75
2022/01/14 04:10:53;;;;;;;;;94.25;71.50;;;;;;;;5093035;28;9565;-75
2022/01/14 04:13:24;;;;;;;;;104.75;85.00;;;;;;;;5095694;28;8852;-74
2022/01/14 04:15:49;;;;;;;;;93.50;73.25;;;;;;;;5095737;28;8802;-75
2022/01/14 04:18:17;;;;;;;;;99.50;79.50;;;;;;;;5095675;28;8817;-74
2022/01/14 04:20:47;;;;;;;;;99.25;78.75;;;;;;;;5091218;28;8979;-75
2022/01/14 04:23:13;;;;;;;;;106.50;84.00;;;;;;;;5093883;28;9735;-75
2022/01/14 04:25:38;;;;;;;;;104.50;84.75;;;;;;;;5094219;28;8921;-75
2022/01/14 04:28:04;;;;;;;;;105.00;89.67;;;;;;;;5093632;28;9024;-75
2022/01/14 04:30:30;;;;;;;;;99.25;77.75;;;;;;;;5094273;28;11569;-75
2022/01/14 04:32:56;;;;;;;;;102.75;85.25;;;;;;;;5081788;28;8822;-74
2022/01/14 04:35:22;;;;;;;;;98.50;75.00;;;;;;;;5095559;28;8817;-74
2022/01/14 04:37:47;;;;;;;;;108.33;86.00;;;;;;;;5093911;28;8924;-74
2022/01/14 04:40:13;;;;;;;;;94.00;73.75;;;;;;;;5095464;28;8810;-74
2022/01/14 04:42:41;;;;;;;;;105.50;82.75;;;;;;;;5095093;28;8820;-74
2022/01/14 04:45:07;;;;;;;;;92.75;73.75;;;;;;;;5095015;28;8804;-74
2022/01/14 04:47:44;;;;;;;;;92.50;74.25;;;;;;;;5081939;28;8801;-74
2022/01/14 04:50:10;;;;;;;;;96.75;77.75;;;;;;;;5094943;28;8786;-74
2022/01/14 04:52:35;;;;;;;;;101.00;77.25;;;;;;;;5095373;28;8821;-74
2022/01/14 04:55:01;;;;;;;;;108.33;89.00;;;;;;;;5093269;28;8850;-74
2022/01/14 04:57:26;;;;;;;;;102.75;81.50;;;;;;;;5095155;28;11566;-74
2022/01/14 04:59:51;;;;;;;;;106.33;85.00;;;;;;;;5094453;28;8818;-74
2022/01/14 05:02:17;;;;;;;;;98.67;74.33;;;;;;;;5095086;28;11604;-74
2022/01/14 05:04:44;;;;;;;;;88.75;71.75;;;;;;;;5093252;28;10114;-74
2022/01/14 05:07:15;;;;;;;;;97.25;76.75;;;;;;;;5094926;28;8777;-74
2022/01/14 05:09:44;;;;;;;;;95.25;73.25;;;;;;;;5094932;28;8812;-74
2022/01/14 05:12:10;;;;;;;;;100.25;77.75;;;;;;;;5094774;28;8935;-74
2022/01/14 05:14:37;;;;;;;;;92.75;74.25;;;;;;;;5093245;28;8770;-74
2022/01/14 05:17:02;;;;;;;;;99.50;78.00;;;;;;;;5094688;28;9672;-74
2022/01/14 05:19:28;;;;;;;;;104.00;80.75;;;;;;;;5090711;28;8921;-74
2022/01/14 05:21:53;;;;;;;;;98.75;77.75;;;;;;;;5093906;28;8798;-74
2022/01/14 05:24:18;;;;;;;;;102.50;80.00;;;;;;;;5092975;28;9199;-74
2022/01/14 05:26:44;;;;;;;;;107.00;81.00;;;;;;;;5093057;28;8829;-74
2022/01/14 05:29:09;;;;;;;;;95.00;77.67;;;;;;;;5094254;28;11271;-74
2022/01/14 05:31:40;;;;;;;;;101.00;78.25;;;;;;;;5094671;28;11579;-74
2022/01/14 05:34:06;;;;;;;;;98.50;74.75;;;;;;;;5093096;28;8908;-74
2022/01/14 05:36:31;;;;;;;;;91.00;73.00;;;;;;;;5093011;28;8916;-74
2022/01/14 05:38:56;;;;;;;;;100.33;79.00;;;;;;;;5092686;28;11578;-74
2022/01/14 05:41:22;;;;;;;;;102.50;78.00;;;;;;;;5093202;28;8794;-74
2022/01/14 05:43:47;;;;;;;;;91.00;69.00;;;;;;;;5093991;28;8778;-74
2022/01/14 05:46:12;;;;;;;;;102.00;79.00;;;;;;;;5086873;28;8836;-74
2022/01/14 05:48:38;;;;;;;;;96.00;74.00;;;;;;;;5088166;28;11594;-74
2022/01/14 05:51:03;;;;;;;;;96.00;74.67;;;;;;;;5093853;28;11286;-74
2022/01/14 05:53:28;;;;;;;;;109.50;86.75;;;;;;;;5094143;28;8832;-74
2022/01/14 05:55:54;;;;;;;;;103.50;81.25;;;;;;;;5091679;28;8835;-74
2022/01/14 05:58:19;;;;;;;;;91.33;71.67;;;;;;;;5093712;28;8841;-74
2022/01/14 06:00:44;;;;;;;;;100.00;79.00;;;;;;;;5093970;28;8802;-75
2022/01/14 06:03:09;;;;;;;;;92.67;70.00;;;;;;;;5094165;28;11667;-74
2022/01/14 06:05:35;;;;;;;;;108.25;88.25;;;;;;;;5093201;28;10364;-75
2022/01/14 06:08:00;;;;;;;;;84.33;69.33;;;;;;;;5093760;28;9526;-74
2022/01/14 06:10:25;;;;;;;;;99.67;79.33;;;;;;;;5093817;28;11540;-74
2022/01/14 06:12:51;;;;;;;;;104.75;82.00;;;;;;;;5092616;28;9568;-74
2022/01/14 06:15:17;;;;;;;;;101.25;79.75;;;;;;;;5092931;28;8950;-74
2022/01/14 06:17:42;;;;;;;;;95.00;75.75;;;;;;;;5093438;28;8794;-74
2022/01/14 06:20:08;;;;;;;;;95.33;74.33;;;;;;;;5088916;28;8849;-74
2022/01/14 06:22:35;;;;;;;;;98.00;77.25;;;;;;;;5091217;28;11569;-74
2022/01/14 06:25:00;;;;;;;;;102.00;79.50;;;;;;;;5093039;28;8782;-74
2022/01/14 06:27:26;;;;;;;;;98.75;77.00;;;;;;;;5092229;28;8857;-73
2022/01/14 06:29:51;;;;;;;;;113.33;99.33;;;;;;;;5093360;28;8869;-73
2022/01/14 06:32:16;;;;;;;;;97.00;77.33;;;;;;;;5093400;28;8806;-73
2022/01/14 06:34:42;;;;;;;;;96.00;76.67;;;;;;;;5091194;28;8918;-73
2022/01/14 06:37:08;;;;;;;;;94.00;72.75;;;;;;;;5093568;28;8936;-73
2022/01/14 06:39:34;;;;;;;;;98.50;76.00;;;;;;;;5093969;28;8900;-73
2022/01/14 06:41:59;;;;;;;;;100.75;78.75;;;;;;;;5092867;28;8925;-73
2022/01/14 06:44:24;;;;;;;;;104.25;86.75;;;;;;;;5094353;28;9569;-74
2022/01/14 06:46:50;;;;;;;;;101.75;78.00;;;;;;;;5090740;28;9193;-74
2022/01/14 06:49:15;;;;;;;;;105.00;81.00;;;;;;;;5093290;28;8833;-74
2022/01/14 06:51:40;;;;;;;;;102.33;82.00;;;;;;;;5092900;28;8935;-74
2022/01/14 06:54:06;;;;;;;;;85.50;69.50;;;;;;;;5092873;28;11589;-74
2022/01/14 06:56:31;;;;;;;;;102.67;84.33;;;;;;;;5092970;28;9617;-74
2022/01/14 06:58:56;;;;;;;;;106.00;88.00;;;;;;;;5092129;28;9077;-75
2022/01/14 07:01:22;;;;;;;;;106.33;82.67;;;;;;;;5092748;28;11757;-75
2022/01/14 07:03:47;;;;;;;;;92.67;71.33;;;;;;;;5092387;28;8888;-75
2022/01/14 07:06:12;;;;;;;;;100.00;76.00;;;;;;;;5091671;28;11599;-75
2022/01/14 07:08:38;;;;;;;;;104.00;81.33;;;;;;;;5091237;28;8809;-73
2022/01/14 07:11:04;;;;;;;;;104.25;83.00;;;;;;;;5092859;28;10262;-75
2022/01/14 07:13:29;;;;;;;;;92.75;74.00;;;;;;;;5092750;28;8844;-74
2022/01/14 07:15:54;;;;;;;;;103.00;79.67;;;;;;;;5092654;28;8861;-74
2022/01/14 07:18:19;;;;;;;;;101.33;80.00;;;;;;;;5093066;28;8802;-74
2022/01/14 07:20:45;;;;;;;;;99.50;78.75;;;;;;;;5090082;28;8872;-74
2022/01/14 07:23:10;;;;;;;;;99.00;77.33;;;;;;;;5092719;28;8928;-75
2022/01/14 07:25:38;;;;;;;;;90.00;68.50;;;;;;;;5093096;28;11567;-74
2022/01/14 07:28:03;;;;;;;;;100.25;74.50;;;;;;;;5077818;28;8895;-74
2022/01/14 07:30:29;;;;;;;;;95.75;75.25;;;;;;;;5093217;28;8813;-74
2022/01/14 07:32:54;;;;;;;;;91.67;71.00;;;;;;;;5092730;28;8814;-74
2022/01/14 07:35:19;;;;;;;;;96.75;77.25;;;;;;;;5093015;28;10762;-74
2022/01/14 07:37:45;;;;;;;;;90.00;69.33;;;;;;;;5091071;28;8813;-73
2022/01/14 07:40:10;;;;;;;;;94.00;71.33;;;;;;;;5092904;28;11598;-74
2022/01/14 07:42:36;;;;;;;;;101.00;82.00;;;;;;;;5092543;28;11578;-74
2022/01/14 07:45:02;;;;;;;;;102.00;78.25;;;;;;;;5093993;28;9315;-74
2022/01/14 07:47:28;;;;;;;;;94.25;73.50;;;;;;;;5092960;28;8794;-74
2022/01/14 07:49:53;;;;;;;;;102.00;78.50;;;;;;;;5095837;28;9627;-74
2022/01/14 07:52:19;;;;;;;;;105.00;84.25;;;;;;;;5096070;28;8899;-74
2022/01/14 07:54:44;;;;;;;;;96.00;74.75;;;;;;;;5096039;28;8821;-74
2022/01/14 07:57:10;;;;;;;;;98.00;75.25;;;;;;;;5095757;28;8892;-74
2022/01/14 07:59:36;;;;;;;;;87.25;68.25;;;;;;;;5096190;28;8826;-74
2022/01/14 08:02:02;;;;;;;;;98.50;76.50;;;;;;;;5095643;28;8826;-74
2022/01/14 08:04:28;;;;;;;;;99.00;78.75;;;;;;;;5096091;28;8952;-74
2022/01/14 08:06:57;;;;;;;;;95.25;76.25;;;;;;;;5095407;28;8786;-74
2022/01/14 08:09:23;;;;;;;;;99.25;75.75;;;;;;;;5096095;28;8820;-74
2022/01/14 08:11:48;;;;;;;;;100.50;80.00;;;;;;;;5095361;28;8928;-74
2022/01/14 08:14:14;;;;;;;;;90.25;71.25;;;;;;;;5095482;28;8810;-74
2022/01/14 08:16:39;;;;;;;;;94.75;74.75;;;;;;;;5095773;28;8778;-74
2022/01/14 08:19:04;;;;;;;;;96.00;75.00;;;;;;;;5092442;28;8797;-74
2022/01/14 08:21:30;;;;;;;;;86.33;68.33;;;;;;;;5095254;28;9588;-74
2022/01/14 08:23:55;;;;;;;;;96.00;76.67;;;;;;;;5095123;28;11527;-74
2022/01/14 08:26:20;;;;;;;;;98.75;77.75;;;;;;;;5095708;28;11565;-73
2022/01/14 08:28:46;;;;;;;;;88.67;69.00;;;;;;;;5095297;28;8817;-74
2022/01/14 08:31:11;;;;;;;;;101.75;84.00;;;;;;;;5095300;28;8814;-74
2022/01/14 08:33:37;;;;;;;;;92.67;73.67;;;;;;;;5095773;28;8844;-74
2022/01/14 08:36:02;;;;;;;;;98.25;77.75;;;;;;;;5094886;28;9619;-74
2022/01/14 08:38:27;;;;;;;;;88.50;68.00;;;;;;;;5095832;28;9541;-74
2022/01/14 08:40:53;;;;;;;;;86.00;71.00;;;;;;;;5095041;28;8830;-74
2022/01/14 08:43:19;;;;;;;;;97.00;76.25;;;;;;;;5095216;28;9520;-74
2022/01/14 08:45:45;;;;;;;;;102.50;78.75;;;;;;;;5090876;28;8850;-74
2022/01/14 08:48:10;;;;;;;;;95.00;75.25;;;;;;;;5085638;28;8793;-74
2022/01/14 08:50:36;;;;;;;;;96.50;74.50;;;;;;;;5095042;28;8871;-74
2022/01/14 08:53:10;;;;;;;;;98.00;75.50;;;;;;;;5094907;28;8782;-74
2022/01/14 08:55:36;;;;;;;;;95.50;72.75;;;;;;;;5094893;28;8879;-74
2022/01/14 08:58:03;;;;;;;;;88.50;67.50;;;;;;;;5094164;28;8778;-73
2022/01/14 09:00:28;;;;;;;;;70.50;56.50;;;;;;;;5095100;28;8967;-74
2022/01/14 09:02:54;;;;;;;;;82.50;67.00;;;;;;;;5094902;28;8889;-74
2022/01/14 09:05:19;;;;;;;;;83.75;67.75;;;;;;;;5094664;28;8834;-74
2022/01/14 09:07:45;;;;;;;;;71.67;53.00;;;;;;;;5094994;28;8790;-74
2022/01/14 09:10:10;;;;;;;;;86.33;70.67;;;;;;;;5094732;28;9671;-74
2022/01/14 09:12:36;;;;;;;;;84.75;67.75;;;;;;;;5094695;28;11526;-73
2022/01/14 09:15:01;;;;;;;;;96.67;75.33;;;;;;;;5094281;28;8925;-74
2022/01/14 09:17:27;;;;;;;;;95.00;73.25;;;;;;;;5094854;28;8829;-74
2022/01/14 09:19:53;;;;;;;;;107.50;84.75;;;;;;;;5092015;28;8900;-74
2022/01/14 09:22:18;;;;;;;;;95.50;74.00;;;;;;;;5094382;28;10205;-74
2022/01/14 09:24:45;;;;;;;;;98.25;77.00;;;;;;;;5094385;28;8814;-74
2022/01/14 09:27:10;;;;;;;;;92.25;72.75;;;;;;;;5094790;28;8774;-74
2022/01/14 09:29:36;;;;;;;;;106.50;87.25;;;;;;;;5094459;28;9573;-74
2022/01/14 09:32:01;;;;;;;;;103.75;85.00;;;;;;;;5094481;28;8790;-73
2022/01/14 09:34:26;;;;;;;;;107.50;89.75;;;;;;;;5094324;28;8817;-74
2022/01/14 09:36:51;;;;;;;;;105.25;86.50;;;;;;;;5094082;28;8827;-74
2022/01/14 09:39:17;;;;;;;;;121.00;111.25;;;;;;;;5094364;28;8802;-74
2022/01/14 09:41:42;;;;;;;;;141.20;133.20;;;;;;;;5094032;28;8909;-74
2022/01/14 09:44:08;;;;;;;;;118.50;107.50;;;;;;;;5093962;28;8916;-74
2022/01/14 09:46:33;;;;;;;;;153.00;143.00;;;;;;;;5087679;28;8851;-73
2022/01/14 09:48:59;;;;;;;;;132.50;125.75;;;;;;;;5090984;28;8900;-73
2022/01/14 09:51:24;;;;;;;;;148.00;139.00;;;;;;;;5093167;28;8825;-74
2022/01/14 09:53:50;;;;;;;;;162.25;156.75;;;;;;;;5091408;28;8861;-74
2022/01/14 09:56:19;;;;;;;;;131.60;126.40;;;;;;;;5093237;28;8809;-74
2022/01/14 09:58:49;;;;;;;;;119.17;116.00;;;;;;;;5093102;28;8802;-74
2022/01/14 10:01:16;;;;;;;;;134.80;133.20;;;;;;;;5092220;28;8836;-74
2022/01/14 10:03:51;;;;;;;;;180.00;172.83;;;;;;;;5092996;28;11533;-73
2022/01/14 10:06:35;;;;;;;;;185.17;174.33;;;;;;;;5079347;28;9804;-72
2022/01/14 10:09:07;;;;;;;;;204.00;198.00;;;;;;;;5084486;28;8899;-73
2022/01/14 10:11:32;;;;;;;;;185.20;178.60;;;;;;;;5091718;28;8833;-73
2022/01/14 10:14:27;;;;;;;;;183.67;179.00;;;;;;;;5093673;28;8801;-73
2022/01/14 10:16:56;;;;;;;;;167.80;167.00;;;;;;;;5078225;28;8794;-73
2022/01/14 10:19:35;;;;;;;;;159.00;153.25;;;;;;;;5092771;28;8813;-73
2022/01/14 10:22:01;;;;;;;;;137.80;128.00;;;;;;;;5093513;28;8789;-73
2022/01/14 10:24:29;;;;;;;;;152.75;141.75;;;;;;;;5087001;28;8810;-74
2022/01/14 10:27:03;;;;;;;;;120.50;116.50;;;;;;;;5093440;28;8778;-73
2022/01/14 10:29:38;;;;;;;;;112.00;102.50;;;;;;;;5078407;28;8821;-74
2022/01/14 10:32:05;;;;;;;;;103.20;85.40;;;;;;;;5093296;28;11532;-74
2022/01/14 10:34:30;;;;;;;;;109.80;95.40;;;;;;;;5093151;28;8895;-73
2022/01/14 10:37:16;;;;;;;;;101.67;79.67;;;;;;;;5091851;28;8861;-73
2022/01/14 10:39:43;;;;;;;;;92.80;72.20;;;;;;;;5093184;28;8826;-73
2022/01/14 10:42:20;;;;;;;;;90.75;71.25;;;;;;;;5091329;28;8804;-74
2022/01/14 10:44:46;;;;;;;;;82.50;65.25;;;;;;;;5097020;28;9708;-74
2022/01/14 10:47:22;;;;;;;;;101.00;85.33;;;;;;;;5094822;27;8813;-74
2022/01/14 10:49:49;;;;;;;;;107.75;90.25;;;;;;;;5094297;28;8886;-74
2022/01/14 10:52:19;;;;;;;;;110.00;99.80;;;;;;;;5087095;28;8806;-74
2022/01/14 10:54:54;;;;;;;;;103.50;90.00;;;;;;;;5091705;28;8878;-73
2022/01/14 10:57:24;;;;;;;;;108.00;95.00;;;;;;;;5092924;28;8786;-73
2022/01/14 10:59:50;;;;;;;;;103.80;90.00;;;;;;;;5090864;28;11504;-73
2022/01/14 11:02:34;;;;;;;;;106.20;92.80;;;;;;;;5091679;28;8809;-73
2022/01/14 11:05:11;;;;;;;;;98.00;74.75;;;;;;;;5089284;28;9051;-73
2022/01/14 11:07:39;;;;;;;;;103.00;83.00;;;;;;;;5090730;28;8770;-73
2022/01/14 11:10:13;;;;;;;;;100.00;83.00;;;;;;;;5091261;28;11531;-73
2022/01/14 11:12:39;;;;;;;;;87.00;69.75;;;;;;;;5089938;28;8772;-73
2022/01/14 11:15:06;;;;;;;;;94.60;75.80;;;;;;;;5092116;28;8762;-73
2022/01/14 11:17:31;;;;;;;;;99.00;80.33;;;;;;;;5091694;28;8813;-74
2022/01/14 11:19:57;;;;;;;;;92.33;72.00;;;;;;;;5092749;28;8849;-74
2022/01/14 11:25:10;;;;;;;;;100.00;85.60;;;;;;;;5088987;28;8826;-74
2022/01/14 11:27:35;;;;;;;;;88.75;69.50;;;;;;;;5096512;28;8912;-74
2022/01/14 11:30:01;;;;;;;;;86.25;65.75;;;;;;;;5096303;28;11652;-74
2022/01/14 11:32:27;;;;;;;;;79.25;62.50;;;;;;;;5095215;28;8836;-74
2022/01/14 11:34:52;;;;;;;;;93.40;72.80;;;;;;;;5095985;28;8872;-74
2022/01/14 11:37:27;;;;;;;;;99.25;80.50;;;;;;;;5096553;28;8798;-74
2022/01/14 11:39:55;;;;;;;;;95.50;78.50;;;;;;;;5095912;28;8924;-74
2022/01/14 11:42:37;;;;;;;;;97.75;78.50;;;;;;;;5096536;28;8778;-74
2022/01/14 11:45:05;;;;;;;;;99.25;84.25;;;;;;;;5096256;28;8808;-74
2022/01/14 11:47:41;;;;;;;;;105.00;92.00;;;;;;;;5096289;28;9782;-74
2022/01/14 11:50:26;;;;;;;;;96.67;79.00;;;;;;;;5096128;28;8806;-75
2022/01/14 11:52:53;;;;;;;;;88.80;69.80;;;;;;;;5095582;28;8813;-74
2022/01/14 11:55:22;;;;;;;;;94.00;75.00;;;;;;;;5096378;28;8821;-74
2022/01/14 11:57:49;;;;;;;;;90.50;71.50;;;;;;;;5095261;28;8826;-74
2022/01/14 12:00:40;;;;;;;;;99.40;85.20;;;;;;;;5087382;28;11582;-75
2022/01/14 12:03:15;;;;;;;;;90.25;68.00;;;;;;;;5095611;28;8886;-74
2022/01/14 12:05:53;;;;;;;;;85.25;68.00;;;;;;;;5095779;28;8837;-74
2022/01/14 12:08:19;;;;;;;;;89.00;71.25;;;;;;;;5096428;28;8898;-74
2022/01/14 12:10:46;;;;;;;;;85.75;68.50;;;;;;;;5095671;28;8817;-74
2022/01/14 12:13:23;;;;;;;;;87.25;68.00;;;;;;;;5094216;28;8813;-74
2022/01/14 12:16:01;;;;;;;;;84.75;65.25;;;;;;;;5095741;28;8810;-74
2022/01/14 12:18:45;;;;;;;;;93.50;75.75;;;;;;;;5095883;28;12565;-74
2022/01/14 12:21:10;;;;;;;;;89.00;69.00;;;;;;;;5088853;28;8841;-74
2022/01/14 12:23:36;;;;;;;;;86.00;66.75;;;;;;;;5082367;28;8860;-74
2022/01/14 12:26:14;;;;;;;;;88.33;68.33;;;;;;;;5095338;28;8841;-74
2022/01/14 12:28:40;;;;;;;;;89.75;69.75;;;;;;;;5095260;28;11165;-74
2022/01/14 12:31:05;;;;;;;;;79.25;63.75;;;;;;;;5093206;28;8837;-75
2022/01/14 12:33:37;;;;;;;;;90.75;68.50;;;;;;;;5095920;28;8941;-75
2022/01/14 12:36:12;;;;;;;;;80.50;63.25;;;;;;;;5095590;28;8923;-74
2022/01/14 12:38:41;;;;;;;;;82.75;68.25;;;;;;;;5095335;28;8806;-75
2022/01/14 12:41:18;;;;;;;;;92.25;72.50;;;;;;;;5095548;28;8786;-75
2022/01/14 12:43:49;;;;;;;;;90.25;72.25;;;;;;;;5095208;28;8765;-75
2022/01/14 12:46:53;;;;;;;;;95.00;76.50;;;;;;;;5089493;28;8808;-75
2022/01/14 12:49:11;;;;;;;;;83.75;66.00;;;;;;;;5095142;28;8836;-74
2022/01/14 12:51:37;;;;;;;;;98.33;79.00;;;;;;;;5095207;28;8790;-75
2022/01/14 12:54:04;;;;;;;;;89.00;71.25;;;;;;;;5095146;28;8882;-74
2022/01/14 12:56:35;;;;;;;;;82.00;67.00;;;;;;;;5094810;28;11562;-75
2022/01/14 12:59:09;;;;;;;;;86.25;68.00;;;;;;;;5094500;28;12243;-75
2022/01/14 13:01:39;;;;;;;;;83.60;67.80;;;;;;;;5081902;28;10472;-75
2022/01/14 13:04:10;;;;;;;;;93.00;73.50;;;;;;;;5093333;28;8855;-75
2022/01/14 13:06:46;;;;;;;;;81.25;64.50;;;;;;;;5095361;28;9550;-75
2022/01/14 13:09:12;;;;;;;;;94.25;76.75;;;;;;;;5094982;28;8794;-75
2022/01/14 13:11:59;;;;;;;;;89.75;70.75;;;;;;;;5093337;28;8907;-75
2022/01/14 13:14:29;;;;;;;;;79.25;64.25;;;;;;;;5094652;28;8801;-75
2022/01/14 13:16:56;;;;;;;;;90.50;75.50;;;;;;;;5084367;28;8798;-75
2022/01/14 13:19:21;;;;;;;;;95.00;82.25;;;;;;;;5093777;28;8758;-75
2022/01/14 13:21:46;;;;;;;;;91.00;73.50;;;;;;;;5092965;28;8866;-75
2022/01/14 13:24:22;;;;;;;;;89.75;68.00;;;;;;;;5094807;28;8810;-75
2022/01/14 13:26:59;;;;;;;;;89.75;75.00;;;;;;;;5094606;28;8767;-75
2022/01/14 13:29:24;;;;;;;;;81.00;66.00;;;;;;;;5094697;28;8758;-75
2022/01/14 13:31:49;;;;;;;;;88.00;72.25;;;;;;;;5094553;28;8980;-75
2022/01/14 13:34:15;;;;;;;;;87.00;68.25;;;;;;;;5094529;28;8852;-75
2022/01/14 13:36:40;;;;;;;;;75.00;59.50;;;;;;;;5094401;28;8900;-75
2022/01/14 13:39:09;;;;;;;;;91.00;72.25;;;;;;;;5094753;28;9680;-75
2022/01/14 13:41:34;;;;;;;;;86.75;68.25;;;;;;;;5094583;28;8801;-75
2022/01/14 13:44:20;;;;;;;;;74.00;59.67;;;;;;;;5093951;28;8821;-75
2022/01/14 13:46:55;;;;;;;;;85.75;69.25;;;;;;;;5085778;28;11498;-75
2022/01/14 13:49:21;;;;;;;;;91.40;77.20;;;;;;;;5094313;28;11657;-75
2022/01/14 13:52:11;;;;;;;;;81.00;64.50;;;;;;;;5094172;28;8789;-75
2022/01/14 13:54:37;;;;;;;;;92.60;74.00;;;;;;;;5092529;28;8974;-75
2022/01/14 13:57:14;;;;;;;;;79.67;65.00;;;;;;;;5092754;28;8855;-74
2022/01/14 13:59:39;;;;;;;;;79.50;62.25;;;;;;;;5081860;28;11693;-75
2022/01/14 14:02:07;;;;;;;;;83.25;67.25;;;;;;;;5094372;28;8944;-75
2022/01/14 14:04:36;;;;;;;;;85.60;70.20;;;;;;;;5094314;28;9759;-75
2022/01/14 14:07:11;;;;;;;;;95.75;79.75;;;;;;;;5092518;28;9329;-75
2022/01/14 14:09:50;;;;;;;;;79.75;65.25;;;;;;;;5094035;28;8813;-75
2022/01/14 14:17:39;;;;;;;;;83.40;66.60;;;;;;;;5087154;28;8766;-74
2022/01/14 14:20:06;;;;;;;;;86.75;69.25;;;;;;;;5093975;28;8895;-75
2022/01/14 14:22:41;;;;;;;;;83.20;66.60;;;;;;;;5093661;28;9609;-75
2022/01/14 14:25:12;;;;;;;;;90.33;74.67;;;;;;;;5093995;28;8778;-75
2022/01/14 14:27:40;;;;;;;;;91.40;75.00;;;;;;;;5077209;28;9484;-74
2022/01/14 14:30:11;;;;;;;;;91.25;72.25;;;;;;;;5092063;28;8774;-74
2022/01/14 14:32:37;;;;;;;;;94.75;75.50;;;;;;;;5092350;28;8905;-75
2022/01/14 14:35:05;;;;;;;;;82.00;64.33;;;;;;;;5093875;28;8834;-75
2022/01/14 14:37:36;;;;;;;;;88.80;70.80;;;;;;;;5093585;28;9936;-75
2022/01/14 14:40:03;;;;;;;;;83.25;66.75;;;;;;;;5092329;28;8818;-74
2022/01/14 14:42:29;;;;;;;;;76.00;60.80;;;;;;;;5093240;28;8896;-75
2022/01/14 14:44:54;;;;;;;;;84.50;67.50;;;;;;;;5071740;28;8843;-74
2022/01/14 14:47:19;;;;;;;;;86.33;70.33;;;;;;;;5092253;28;8898;-75
2022/01/14 14:49:45;;;;;;;;;79.25;63.75;;;;;;;;5093588;28;8805;-74
2022/01/14 14:52:10;;;;;;;;;84.00;66.00;;;;;;;;5093272;28;9408;-74
2022/01/14 14:54:36;;;;;;;;;85.75;69.75;;;;;;;;5092919;28;8974;-74
2022/01/14 14:57:01;;;;;;;;;84.50;67.25;;;;;;;;5095194;28;8810;-74
2022/01/14 14:59:26;;;;;;;;;81.67;61.67;;;;;;;;5097071;28;9525;-74